F\v Desperado — FVFQ — position and weather

sailwx.info

Track history (hours):
 
Tides and Currents Weather Stations Pressure Air Temp Water Temp Dewpoint Dewpoint Depression Visibility Wind Speed Wind Dir Waves Ship Positions

F\v Desperado

Last reported at 2017-Dec-16 00:59 UTC. Time now 2017-Dec-17 06:24 UTC.
Position N 47°27' W 003°54'.

Type: Fishing. MMSI: 228312000.

Date/timePositionNaut miles runAvg speedWind from/ knotsBaromVisibWave heightAir tempDewpointWater temp
2017-Dec-16 00:59N 47°27' W 003°54'4 7.9
2017-Dec-16 00:30N 47°31' W 003°54'4 8.0
2017-Dec-15 23:58N 47°35' W 003°54'5 8.0
2017-Dec-15 23:21N 47°40' W 003°54'4 8.3
2017-Dec-15 22:48N 47°44' W 003°55'4 8.3
2017-Dec-15 22:19N 47°48' W 003°56'2 8.2
2017-Dec-15 22:00N 47°51' W 003°56'  
2017-Dec-10 17:51N 47°51' W 003°56'18 7.6
2017-Dec-10 15:33N 47°34' W 003°53'2 6.8
2017-Dec-10 15:13N 47°32' W 003°52'1 2.9
2017-Dec-10 14:52N 47°31' W 003°52'3 5.1
2017-Dec-10 14:21N 47°28' W 003°51'6 5.9
2017-Dec-10 13:22N 47°23' W 003°48'  
2017-Dec-08 07:44N 47°18' W 003°44'2 8.5
2017-Dec-08 07:28N 47°21' W 003°45'4 8.4
2017-Dec-08 07:00N 47°24' W 003°46'4 8.3
2017-Dec-08 06:28N 47°29' W 003°48'5 8.3
2017-Dec-08 05:52N 47°33' W 003°50'13 8.4
2017-Dec-08 04:18N 47°46' W 003°55'3 8.3
2017-Dec-08 03:57N 47°49' W 003°56'11 2.5
2017-Dec-07 23:27N 47°38' W 003°53'4 8.0
2017-Dec-07 23:00N 47°34' W 003°51'4 7.9
2017-Dec-07 22:28N 47°30' W 003°49'  
Track history (hours):
 
Tides and Currents Weather Stations Pressure Air Temp Water Temp Dewpoint Dewpoint Depression Visibility Wind Speed Wind Dir Waves Ship Positions

F\v Desperado

Last reported at 2017-Dec-16 00:59 UTC. Time now 2017-Dec-17 06:24 UTC.
Position N 47°27' W 003°54'.

Type: Fishing. MMSI: 228312000.

Date/timePositionNaut miles runAvg speedWind from/ knotsBaromVisibWave heightAir tempDewpointWater temp
2017-Dec-16 00:59N 47°27' W 003°54'4 7.9
2017-Dec-16 00:30N 47°31' W 003°54'4 8.0
2017-Dec-15 23:58N 47°35' W 003°54'5 8.0
2017-Dec-15 23:21N 47°40' W 003°54'4 8.3
2017-Dec-15 22:48N 47°44' W 003°55'4 8.3
2017-Dec-15 22:19N 47°48' W 003°56'2 8.2
2017-Dec-15 22:00N 47°51' W 003°56'  
2017-Dec-10 17:51N 47°51' W 003°56'18 7.6
2017-Dec-10 15:33N 47°34' W 003°53'2 6.8
2017-Dec-10 15:13N 47°32' W 003°52'1 2.9
2017-Dec-10 14:52N 47°31' W 003°52'3 5.1
2017-Dec-10 14:21N 47°28' W 003°51'6 5.9
2017-Dec-10 13:22N 47°23' W 003°48'  
2017-Dec-08 07:44N 47°18' W 003°44'2 8.5
2017-Dec-08 07:28N 47°21' W 003°45'4 8.4
2017-Dec-08 07:00N 47°24' W 003°46'4 8.3
2017-Dec-08 06:28N 47°29' W 003°48'5 8.3
2017-Dec-08 05:52N 47°33' W 003°50'13 8.4
2017-Dec-08 04:18N 47°46' W 003°55'3 8.3
2017-Dec-08 03:57N 47°49' W 003°56'11 2.5
2017-Dec-07 23:27N 47°38' W 003°53'4 8.0
2017-Dec-07 23:00N 47°34' W 003°51'4 7.9
2017-Dec-07 22:28N 47°30' W 003°49'  

Dump ship's entire track history